Aérodrome :
LOGIN :

S'inscrire | Disclaimer

   EN    FR    IT 

 










Légende :    VFR   VFR Marginal   IFR   IFR Intensif   IFR Très Intensif
Visi : 
Plafond : 
>= 8 km
>= 3000ft
5 à 8 km
1000 à 3000 ft
1500m à 5 km
500 à 1000 ft
800 à 1500m
200 à 500 ft
< 800m
< 200 ft
Symboles :   Orages  Brouillard  Fortes neiges  Fortes précipitations  Vent > 20 kt
SIGMETs :   Divers  Orages  Givrage  Turbulence  Onde Orograph.  Cendres Volcan.







- Altitude de l'aérodrome : 16 ft
- Code IATA : EAS


LESO - San Sebastian Fuenterrabia

DERNIER METAR :
  • 182200Z AUTO 22005KT 170V250 9999 -RA FEW030/// BKN037/// OVC048/// 15/15 Q1011

METARs EXPIRÉS :
  • 182130Z AUTO 23007KT 9999 -RA SCT021/// SCT030/// BKN042/// 15/15 Q1011
  • 182100Z AUTO 23005KT 9999 -RA FEW012/// SCT025/// BKN034/// 15/15 Q1010
  • 182030Z AUTO 23005KT 9999 -RA FEW024/// SCT050/// 15/15 Q1010
  • 182000Z 24004KT 210V270 9999 RA FEW025 SCT049 15/15 Q1010
  • 181930Z 22003KT 190V260 9999 RA FEW025 SCT049 15/15 Q1010
  • 181900Z VRB01KT 9999 FEW025 15/15 Q1010

TAF TAF LESO
Valide du 18 à 18h jusqu'au 19 à 18h UTC


181700Z 1818/1918 VRB05KT 9999 SCT030 TX19/1914Z TN12/1907Z
TEMPO 1818/1903 26010KT 3000 RA SHRA BKN012 BKN025TCU
PROB30
TEMPO 1818/1821 3000 SHRA TS BKN010 BKN020CB
Pas de NOTAMs connus pour ce terrain.
2 SIGMETs publiés pour la FIR Madrid (LECM) :
 
Orages noyés dans la masse
LECM SIGMET 16 VALID 182123/182400 LEVA
LECM MADRID FIR/UIR EMBD TS FCST WI N3830 W00410 - N3750 W00410 - N3750 W00240 - N3830 W00240 - N3830 W00410 TOP FL380 MOV E 10KT NC=
Turbulence forte
LECM SIGMET 15 VALID 182026/182400 LEVA
LECM MADRID FIR/UIR SEV TURB FCST N OF LINE N4110 W00630 - N4110 W002 FL200/360 MOV E 20KT NC=



MET'MAP, la Météo Aéronautique d'un coup d'oeil ! - Copyright ORBIFLY Décembre 2007 - Disclaimer

ORBIFLY MET'MAP TEAM :

Programmation & Développement : Alexandra Zaïnal
Conception & Développement : Baudouin d'Aumeries
Co-Programmation & Développement : Marc-Olivier Méhu
Soutien technique & logistique : Manuel Goepfert

Contact : metmap@orbifly.com




SOURCES & CREDITS :

   NOAA